Juniper Hills, California
Current Conditions -  °F | °C
As of 9:53 PM on Tuesday 25 Nov 2014 (Local Time) from KPMD Reporting Station
Clear Clear  
Wind Chill: 41°   Ceiling: Unl
Heat Index: 45°   Visibility: 10mi
Dew Point: 10°   Wind: 7mph
Humidity: 24%   Direction: 270°W
Pressure: 30.4"   Gusts: NA
Location:  34.4844°N, 117.91°W
Report Text: KPMD 260553Z 27006KT 10SM CLR 07/M12 A3040 RMK AO2 SLP293 T00721122 10189 20061 51005
Loading
Personal Weather Stations






























Interactive Weather Map New forecast layout! Learn more

10-Day Weather Forecast

Advertisements
Track Severe Weather on mobile